M I D A S
Marine Information and Data Acquisition System
Tripno 955 of the Zeeleeuw from 2005-08-30 05:10:28 to 2005-08-30 14:19:17
Back to CruiseResearch ActivitiesStationsMapUnderway DataData graphs

EquipmentUnitsComment
TimeDGPSUTC
LatitudeDGPSDM.mWGS84
LongitudeDGPSDM.mWGS84
HeadingGyrodeg 
SOGDGPSknotsSpeed over ground
COGDGPSdegCourse over ground
DepthEcho soundermeters200 kHz
Missing or incorrect values are displayed as -999
Navigation data collected by the RV Zeeleeuw from 2005-08-30 04:52:01 to 2005-08-30 14:26:24
Time Latitude Longitude Heading SOG COG Depth
2005-08-30 04:53:07 51°13.615 2°56.023 116.6 3.6 293 -999
2005-08-30 04:54:06 51°13.648 2°55.929 129.9 4.4 305 -999
2005-08-30 04:55:06 51°13.695 2°55.834 132.1 4.7 309 -999
2005-08-30 04:56:06 51°13.755 2°55.734 140.5 5.3 314 -999
2005-08-30 04:57:07 51°13.83 2°55.652 161.8 5.2 336 -999
2005-08-30 04:58:06 51°13.907 2°55.638 193.7 3.8 6 4.9
2005-08-30 04:59:06 51°13.935 2°55.64 232.9 1.1 254 10.1
2005-08-30 05:00:06 51°13.971 2°55.542 325.6 6.5 322 10.2
2005-08-30 05:01:06 51°14.101 2°55.437 341.1 9.7 337 9.5
2005-08-30 05:02:06 51°14.247 2°55.272 316.8 11.3 314 10.2
2005-08-30 05:03:06 51°14.376 2°55.037 310.4 11.8 313 10.2
2005-08-30 05:04:06 51°14.458 2°54.708 297.4 13.8 290 10.2
2005-08-30 05:05:06 51°14.544 2°54.367 300.1 13.9 293 10.3
2005-08-30 05:06:06 51°14.633 2°54.025 299.6 14 292 10.4
2005-08-30 05:07:06 51°14.711 2°53.683 294.4 13.8 287 10
2005-08-30 05:08:06 51°14.727 2°53.314 277 13.9 272 9.7
2005-08-30 05:09:06 51°14.74 2°52.945 279.5 14.1 273 9.5
2005-08-30 05:10:06 51°14.749 2°52.571 279.8 14.2 274 9.6
2005-08-30 05:11:06 51°14.76 2°52.194 279.7 14.3 273 9.9
2005-08-30 05:12:06 51°14.771 2°51.81 278.6 14.4 273 10.4
2005-08-30 05:13:06 51°14.784 2°51.426 278.2 14.5 272 10.9
2005-08-30 05:14:06 51°14.797 2°51.041 279.2 14.6 274 11.4
2005-08-30 05:15:06 51°14.809 2°50.652 279.6 14.6 273 12
2005-08-30 05:16:06 51°14.822 2°50.264 278.9 14.7 273 12.3
2005-08-30 05:17:06 51°14.83 2°49.876 278.4 14.7 272 12.5
2005-08-30 05:18:06 51°14.841 2°49.484 279.4 14.7 273 12.7
2005-08-30 05:19:06 51°14.854 2°49.097 279.3 14.6 273 12.8
2005-08-30 05:20:05 51°14.867 2°48.713 279.4 14.6 273 12.6
2005-08-30 05:21:06 51°14.88 2°48.323 279.4 14.6 273 12.5
2005-08-30 05:22:06 51°14.892 2°47.936 279.2 14.7 273 13.1
2005-08-30 05:23:06 51°14.905 2°47.547 279.6 14.6 274 13.1
2005-08-30 05:24:06 51°14.92 2°47.166 279.4 14.4 274 11
2005-08-30 05:25:06 51°14.934 2°46.787 279.7 14.2 274 9.4
2005-08-30 05:26:06 51°14.947 2°46.407 280.2 14.4 274 9.8
2005-08-30 05:27:06 51°14.964 2°46.02 279.8 14.6 274 11.7
2005-08-30 05:28:05 51°14.978 2°45.641 278.7 14.6 273 13.7
2005-08-30 05:29:06 51°14.991 2°45.251 279 14.6 273 15.2
2005-08-30 05:30:06 51°15.006 2°44.863 279.4 14.6 274 16.6
2005-08-30 05:31:06 51°15.019 2°44.475 278.5 14.7 272 17.6
2005-08-30 05:32:06 51°15.033 2°44.086 279.5 14.6 274 18.6
2005-08-30 05:33:06 51°15.047 2°43.698 278.8 14.7 273 17.4
2005-08-30 05:34:06 51°15.06 2°43.311 279.5 14.6 274 14.4
2005-08-30 05:35:06 51°15.073 2°42.922 279 14.5 273 13.8
2005-08-30 05:36:06 51°15.085 2°42.54 279.4 14.5 273 12.8
2005-08-30 05:37:06 51°15.114 2°42.158 286.2 14.3 279 13.3
2005-08-30 05:38:06 51°15.148 2°41.789 285.1 14 278 12.8
2005-08-30 05:39:06 51°15.184 2°41.424 286.6 13.8 280 12.2
2005-08-30 05:40:06 51°15.221 2°41.06 285.5 14 279 11.7
2005-08-30 05:41:06 51°15.272 2°40.703 296.1 13.7 289 11.8
2005-08-30 05:42:05 51°15.358 2°40.565 358.9 5 348 13.2
2005-08-30 05:43:06 51°15.405 2°40.601 58.1 2.6 50 13.4
2005-08-30 05:44:06 51°15.425 2°40.655 67.8 2.4 64 13
2005-08-30 05:45:06 51°15.439 2°40.715 74.2 2.2 74 13.2
2005-08-30 05:46:06 51°15.439 2°40.735 89.4 0.5 211 12.5
2005-08-30 05:47:06 51°15.434 2°40.727 94.4 0.5 220 12.8
2005-08-30 05:48:06 51°15.428 2°40.721 92.1 0.5 159 13.1
2005-08-30 05:49:06 51°15.43 2°40.738 54 1.1 52 12.6
2005-08-30 05:50:06 51°15.444 2°40.749 37.2 0.9 23 12.7
2005-08-30 05:51:05 51°15.459 2°40.757 46.5 0.9 29 12.8
2005-08-30 05:52:06 51°15.464 2°40.758 55.9 0.2 271 13.1
2005-08-30 05:53:06 51°15.458 2°40.738 60.6 0.8 237 12.7
2005-08-30 05:54:06 51°15.452 2°40.719 53.5 0.8 239 12.8
2005-08-30 05:55:06 51°15.445 2°40.699 43.4 0.8 243 12.7
2005-08-30 05:56:06 51°15.44 2°40.68 32.9 0.8 246 12.9
2005-08-30 05:57:06 51°15.435 2°40.659 26.1 0.7 245 13
2005-08-30 05:58:06 51°15.43 2°40.639 22.3 0.8 254 13.1
2005-08-30 05:59:06 51°15.427 2°40.62 22.2 0.8 255 13.7
2005-08-30 06:00:07 51°15.403 2°40.588 30.6 3.1 215 -999
2005-08-30 06:01:06 51°15.388 2°40.564 50.3 0.5 235 13.7
2005-08-30 06:02:06 51°15.376 2°40.532 60.8 1.8 242 5.5
2005-08-30 06:03:06 51°15.362 2°40.496 51.2 1.6 234 13.9
2005-08-30 06:04:06 51°15.345 2°40.461 45 1.6 231 13.8
2005-08-30 06:05:06 51°15.339 2°40.445 58 0.4 55 13.7
2005-08-30 06:06:06 51°15.343 2°40.464 73.3 0.6 74 13.8
2005-08-30 06:07:06 51°15.345 2°40.473 73.2 0.2 97 13.8
2005-08-30 06:08:06 51°15.345 2°40.483 73.1 0.7 75 13.9
2005-08-30 06:09:06 51°15.359 2°40.547 69.6 3.2 71 13.7
2005-08-30 06:10:06 51°15.381 2°40.632 70.4 2.9 75 13.5
2005-08-30 06:11:06 51°15.388 2°40.688 82.1 1.7 86 13.4
2005-08-30 06:12:06 51°15.393 2°40.735 62.2 2 78 13
2005-08-30 06:13:06 51°15.418 2°40.759 36.5 1.7 22 12.8
2005-08-30 06:14:06 51°15.442 2°40.764 25.3 1.4 2 12.5
2005-08-30 06:15:06 51°15.458 2°40.766 38.1 0.5 327 13.2
2005-08-30 06:16:06 51°15.457 2°40.753 41.9 0.6 262 12.6
2005-08-30 06:17:06 51°15.451 2°40.733 37.4 1 235 13.2
2005-08-30 06:18:06 51°15.443 2°40.71 25.8 1 243 13.2
2005-08-30 06:19:06 51°15.446 2°40.698 34.8 0.7 338 12.8
2005-08-30 06:20:06 51°15.455 2°40.704 54.4 0.9 40 13.6
2005-08-30 06:21:06 51°15.465 2°40.73 61.9 1.3 58 13.1
2005-08-30 06:22:06 51°15.472 2°40.757 68.6 0.9 73 13.4
2005-08-30 06:23:06 51°15.472 2°40.775 82 0.3 111 13.1
2005-08-30 06:24:06 51°15.467 2°40.77 90.2 0.4 226 13.2
2005-08-30 06:25:06 51°15.461 2°40.761 91 0.5 221 13
2005-08-30 06:26:06 51°15.454 2°40.749 89.3 0.7 220 12.7
2005-08-30 06:27:06 51°15.448 2°40.736 86.8 0.7 233 13.1
2005-08-30 06:28:06 51°15.441 2°40.721 81.4 0.8 239 13
2005-08-30 06:29:06 51°15.435 2°40.703 71.8 0.7 250 13
2005-08-30 06:30:06 51°15.429 2°40.684 59.3 0.7 247 13.3
2005-08-30 06:31:06 51°15.424 2°40.663 46.8 0.9 242 13.7
2005-08-30 06:32:06 51°15.417 2°40.642 34.1 0.9 245 -999
2005-08-30 06:33:06 51°15.41 2°40.622 22.3 1 248 13.8
2005-08-30 06:34:06 51°15.403 2°40.601 11.1 0.9 244 13.7
2005-08-30 06:35:06 51°15.396 2°40.582 1.2 0.7 237 13.9
2005-08-30 06:36:06 51°15.394 2°40.563 1.4 0.9 302 13.7
2005-08-30 06:37:06 51°15.416 2°40.577 51.1 1.6 46 13.9
2005-08-30 06:38:06 51°15.426 2°40.611 73.8 1.5 70 13.9
2005-08-30 06:39:06 51°15.429 2°40.649 80.3 1.5 84 13.7
2005-08-30 06:40:06 51°15.432 2°40.691 76 1.5 78 13.8
2005-08-30 06:41:06 51°15.443 2°40.728 57.2 1.6 52 13
2005-08-30 06:42:06 51°15.455 2°40.763 68.2 1.6 68 11.8
2005-08-30 06:43:06 51°15.463 2°40.787 56 0.6 43 13.6
2005-08-30 06:44:06 51°15.469 2°40.791 41.6 0.4 14 13.3
2005-08-30 06:45:06 51°15.473 2°40.787 34.7 0.2 266 13.2
2005-08-30 06:46:06 51°15.471 2°40.776 29.2 0.5 260 13.3
2005-08-30 06:47:06 51°15.5 2°40.782 20.7 3.4 13 13.5
2005-08-30 06:48:06 51°15.536 2°40.804 36.9 1.9 23 13.6
2005-08-30 06:49:06 51°15.546 2°40.808 50.6 0.4 290 13.8
2005-08-30 06:50:06 51°15.55 2°40.812 70.4 0.2 56 13.6
2005-08-30 06:51:06 51°15.549 2°40.818 82.6 0.5 110 13.5
2005-08-30 06:52:06 51°15.544 2°40.827 99.6 0.5 158 14.1
2005-08-30 06:53:06 51°15.538 2°40.829 102.9 0.4 193 13.4
2005-08-30 06:54:06 51°15.532 2°40.826 104.4 0.3 199 13.7
2005-08-30 06:55:06 51°15.526 2°40.821 106.4 0.4 204 13.4
2005-08-30 06:56:06 51°15.52 2°40.812 109.1 0.5 224 13.6
2005-08-30 06:57:06 51°15.513 2°40.801 114.1 0.3 272 13.4
2005-08-30 06:58:06 51°15.507 2°40.787 122.1 0.6 241 13.6
2005-08-30 06:59:06 51°15.5 2°40.772 131.3 0.6 238 13.6
2005-08-30 07:00:06 51°15.494 2°40.755 140.9 0.6 243 13.3
2005-08-30 07:01:06 51°15.49 2°40.735 150.9 0.9 260 14.1
2005-08-30 07:02:06 51°15.488 2°40.715 163.6 0.7 266 14
2005-08-30 07:03:06 51°15.486 2°40.696 176 0.7 261 14
2005-08-30 07:04:06 51°15.484 2°40.679 186.5 0.8 258 14.5
2005-08-30 07:05:06 51°15.481 2°40.663 194.5 0.6 251 14.4
2005-08-30 07:06:06 51°15.477 2°40.647 202.5 0.5 243 14.2
2005-08-30 07:07:06 51°15.474 2°40.631 208.9 0.7 246 14.7
2005-08-30 07:08:06 51°15.47 2°40.615 213.6 0.7 248 14.8
2005-08-30 07:09:06 51°15.465 2°40.601 216.2 0.5 236 14.8
2005-08-30 07:10:06 51°15.461 2°40.584 216.6 0.7 255 14.6
2005-08-30 07:11:06 51°15.457 2°40.568 215 0.6 241 14.7
2005-08-30 07:12:06 51°15.453 2°40.552 212.6 0.5 237 15.1
2005-08-30 07:13:06 51°15.45 2°40.538 209.8 0.6 247 14.9
2005-08-30 07:14:06 51°15.447 2°40.522 206.8 0.6 249 14.9
2005-08-30 07:15:06 51°15.444 2°40.507 205.1 0.6 256 15.3
2005-08-30 07:16:06 51°15.44 2°40.492 204.6 0.7 255 15.2
2005-08-30 07:17:06 51°15.438 2°40.474 203.6 0.6 249 15.1
2005-08-30 07:18:06 51°15.435 2°40.459 203.2 0.5 248 15.7
2005-08-30 07:19:06 51°15.432 2°40.443 202.4 0.7 258 15.5
2005-08-30 07:20:06 51°15.429 2°40.427 201.3 0.6 253 15.4
2005-08-30 07:21:06 51°15.425 2°40.412 200.4 0.6 251 15.8
2005-08-30 07:22:06 51°15.422 2°40.395 199.5 0.7 255 15.7
2005-08-30 07:23:06 51°15.408 2°40.377 197.9 1.5 212 15.8
2005-08-30 07:24:06 51°15.383 2°40.357 190.4 1.5 202 15.9
2005-08-30 07:25:06 51°15.362 2°40.343 188.7 1.3 207 15.3
2005-08-30 07:26:06 51°15.344 2°40.331 186.6 1.1 204 15.4
2005-08-30 07:27:06 51°15.328 2°40.32 183.6 1 206 15.2
2005-08-30 07:28:06 51°15.313 2°40.312 178.5 1.1 196 15
2005-08-30 07:29:06 51°15.279 2°40.332 138.6 3.7 137 14.7
2005-08-30 07:30:06 51°15.284 2°40.458 62.3 6 58 14.1
2005-08-30 07:31:06 51°15.354 2°40.576 48.9 6.1 45 13.9
2005-08-30 07:32:06 51°15.41 2°40.676 58.1 4.4 51 13.8
2005-08-30 07:33:06 51°15.445 2°40.751 57.7 3.2 53 13.5
2005-08-30 07:34:06 51°15.473 2°40.812 62.6 2.6 56 13.6
2005-08-30 07:35:06 51°15.486 2°40.844 63.5 0.8 41 13.5
2005-08-30 07:36:07 51°15.48 2°40.824 62.2 1.4 246 13.8
2005-08-30 07:37:06 51°15.471 2°40.799 54.4 1 246 13.7
2005-08-30 07:38:06 51°15.47 2°40.799 59.7 0.3 56 13.8
2005-08-30 07:39:06 51°15.474 2°40.804 59.6 0.2 54 13.6
2005-08-30 07:40:07 51°15.478 2°40.805 55.8 0.4 350 13.7
2005-08-30 07:41:06 51°15.481 2°40.805 55.2 0.2 345 13.7
2005-08-30 07:42:06 51°15.482 2°40.803 57.8 0.1 268 13.7
2005-08-30 07:43:06 51°15.482 2°40.8 62.7 0.2 293 13.8
2005-08-30 07:44:06 51°15.481 2°40.798 69.8 0.1 286 13.7
2005-08-30 07:45:06 51°15.48 2°40.795 77.9 0.1 209 13.7
2005-08-30 07:46:06 51°15.48 2°40.796 84.6 -999 89 13.8
2005-08-30 07:47:06 51°15.48 2°40.797 87 -999 77 13.8
2005-08-30 07:48:06 51°15.48 2°40.798 85.3 0.2 2 13.7
2005-08-30 07:49:06 51°15.481 2°40.798 83.2 -999 34 13.7
2005-08-30 07:50:06 51°15.482 2°40.797 81.8 0.1 355 13.7
2005-08-30 07:51:07 51°15.482 2°40.797 82.1 0.1 10 13.7
2005-08-30 07:52:06 51°15.483 2°40.798 82.7 0.3 358 13.8
2005-08-30 07:53:06 51°15.484 2°40.799 81 0.2 358 13.9
2005-08-30 07:54:06 51°15.483 2°40.8 82.5 0.1 52 13.9
2005-08-30 07:55:06 51°15.483 2°40.8 86 -999 1 13.9
2005-08-30 07:56:06 51°15.483 2°40.8 88.8 0.2 175 13.9
2005-08-30 07:57:06 51°15.483 2°40.8 91.6 0.1 186 13.9
2005-08-30 07:58:06 51°15.482 2°40.799 93.8 0.1 351 13.8
2005-08-30 07:59:06 51°15.48 2°40.8 95.1 0.1 342 13.8
2005-08-30 08:00:06 51°15.48 2°40.799 96.6 0.1 14 13.8
2005-08-30 08:01:06 51°15.479 2°40.8 97.2 0.1 155 13.9
2005-08-30 08:02:07 51°15.479 2°40.8 96.3 0.1 18 13.8
2005-08-30 08:03:07 51°15.479 2°40.801 95 0.1 36 13.8
2005-08-30 08:04:06 51°15.479 2°40.801 93.7 -999 61 13.9
2005-08-30 08:05:06 51°15.479 2°40.8 92.9 0.1 191 13.9
2005-08-30 08:06:06 51°15.479 2°40.8 92.1 0.1 188 13.9
2005-08-30 08:07:06 51°15.48 2°40.799 91.4 -999 95 13.9
2005-08-30 08:08:06 51°15.48 2°40.8 93 0.3 14 13.9
2005-08-30 08:09:06 51°15.48 2°40.801 97.5 -999 114 13.9
2005-08-30 08:10:06 51°15.479 2°40.802 104.1 0.1 182 13.9
2005-08-30 08:11:06 51°15.479 2°40.803 109 0.1 146 14
2005-08-30 08:12:07 51°15.478 2°40.804 112.2 0.1 97 14
2005-08-30 08:13:06 51°15.478 2°40.805 114.6 0.1 175 14
2005-08-30 08:14:07 51°15.478 2°40.806 115.9 0.1 40 14
2005-08-30 08:15:06 51°15.478 2°40.808 117.5 0.1 183 14.1
2005-08-30 08:16:06 51°15.477 2°40.809 120.4 0.2 35 14.1
2005-08-30 08:17:06 51°15.478 2°40.808 123.6 -999 22 14.1
2005-08-30 08:18:07 51°15.478 2°40.808 127 0.1 228 14.1
2005-08-30 08:19:06 51°15.479 2°40.807 130.8 0.1 304 14
2005-08-30 08:20:06 51°15.48 2°40.806 133.8 0.1 241 14
2005-08-30 08:21:06 51°15.481 2°40.806 136.2 0.1 337 13.9
2005-08-30 08:22:07 51°15.481 2°40.806 138.1 0.1 225 14
2005-08-30 08:23:06 51°15.481 2°40.806 140.8 0.1 197 14.1
2005-08-30 08:24:06 51°15.481 2°40.808 142.6 0.1 136 14.1
2005-08-30 08:25:06 51°15.481 2°40.809 144.3 0.2 197 14.1
2005-08-30 08:26:06 51°15.48 2°40.811 146.2 0.1 76 14.1
2005-08-30 08:27:07 51°15.48 2°40.812 148.1 0.1 49 14.1
2005-08-30 08:28:06 51°15.48 2°40.812 149.4 -999 355 14.1
2005-08-30 08:29:06 51°15.481 2°40.811 150.6 0.1 238 14.1
2005-08-30 08:30:06 51°15.482 2°40.811 152.7 0.1 24 14
2005-08-30 08:31:06 51°15.483 2°40.81 155.1 0.1 340 14
2005-08-30 08:32:06 51°15.483 2°40.81 156.5 0.1 349 14
2005-08-30 08:33:07 51°15.484 2°40.81 156.6 -999 44 14
2005-08-30 08:34:06 51°15.484 2°40.811 156 0.1 238 14
2005-08-30 08:35:06 51°15.483 2°40.811 154.8 0.1 168 14
2005-08-30 08:36:06 51°15.482 2°40.811 154.3 -999 212 14.1
2005-08-30 08:37:07 51°15.481 2°40.812 153.8 -999 115 14.1
2005-08-30 08:38:06 51°15.481 2°40.812 152.4 0.1 347 14.1
2005-08-30 08:39:06 51°15.481 2°40.812 151.3 -999 18 14.1
2005-08-30 08:40:06 51°15.482 2°40.811 152.6 0.1 322 14.1
2005-08-30 08:41:07 51°15.48 2°40.811 153.8 0.4 148 14.1
2005-08-30 08:42:07 51°15.48 2°40.821 132 0.4 84 13.9
2005-08-30 08:43:06 51°15.482 2°40.83 117.6 0.4 67 14.2
2005-08-30 08:44:07 51°15.485 2°40.838 107.4 0.3 56 14
2005-08-30 08:45:06 51°15.49 2°40.845 92 0.4 37 13.9
2005-08-30 08:46:06 51°15.495 2°40.851 83.8 0.5 26 13.8
2005-08-30 08:47:06 51°15.499 2°40.858 79.9 0.4 27 14
2005-08-30 08:48:06 51°15.503 2°40.864 77.6 0.4 25 14.2
2005-08-30 08:49:06 51°15.507 2°40.87 74.2 0.5 29 14.3
2005-08-30 08:50:07 51°15.512 2°40.875 68.9 0.3 37 13.9
2005-08-30 08:51:07 51°15.531 2°40.899 40 3 34 14.5
2005-08-30 08:52:07 51°15.598 2°40.865 314.3 5.5 308 14.4
2005-08-30 08:53:06 51°15.61 2°40.68 273.6 8.2 272 15.9
2005-08-30 08:54:06 51°15.593 2°40.452 257.6 8.8 258 17.4
2005-08-30 08:55:07 51°15.513 2°40.26 230.7 8.8 228 17.9
2005-08-30 08:56:06 51°15.429 2°40.101 236.6 7.1 231 18.4
2005-08-30 08:57:06 51°15.399 2°39.993 258.3 3.5 259 18.8
2005-08-30 08:58:06 51°15.399 2°39.921 279.7 2.5 279 19.2
2005-08-30 08:59:06 51°15.418 2°39.861 304.5 2.6 307 19.6
2005-08-30 09:00:06 51°15.445 2°39.821 318.5 2.1 321 19.9
2005-08-30 09:01:06 51°15.47 2°39.796 326 1.6 330 20.1
2005-08-30 09:02:06 51°15.491 2°39.78 329.5 1.3 331 20.3
2005-08-30 09:03:06 51°15.53 2°39.774 11 3.5 13 20.5
2005-08-30 09:04:07 51°15.589 2°39.847 52.9 5.1 46 20.7
2005-08-30 09:05:06 51°15.642 2°39.945 56.6 4.6 48 20.7
2005-08-30 09:06:06 51°15.676 2°40.024 66 3.3 59 20.6
2005-08-30 09:07:07 51°15.704 2°40.094 64.9 3 56 20.5
2005-08-30 09:08:06 51°15.733 2°40.159 60.4 3.1 54 20.4
2005-08-30 09:09:07 51°15.764 2°40.224 59.4 3.1 53 20.3
2005-08-30 09:10:06 51°15.794 2°40.287 63.2 2.9 57 20.4
2005-08-30 09:11:06 51°15.822 2°40.351 64 2.9 56 20.3
2005-08-30 09:12:06 51°15.849 2°40.413 63.3 2.9 55 20.1
2005-08-30 09:13:06 51°15.876 2°40.474 64.3 2.9 54 20.1
2005-08-30 09:14:06 51°15.902 2°40.538 67.4 2.8 56 19.9
2005-08-30 09:15:07 51°15.927 2°40.602 67.9 2.8 60 19.8
2005-08-30 09:16:06 51°15.951 2°40.666 68.2 2.9 57 19.7
2005-08-30 09:17:06 51°15.977 2°40.73 66 2.8 56 19.6
2005-08-30 09:18:06 51°16.005 2°40.794 63.9 2.9 53 19.4
2005-08-30 09:19:06 51°16.032 2°40.856 64.4 2.8 56 19.3
2005-08-30 09:20:06 51°16.059 2°40.918 64.6 2.8 58 19.2
2005-08-30 09:21:06 51°16.086 2°40.982 64.2 2.8 56 18.9
2005-08-30 09:22:07 51°16.114 2°41.045 64.5 2.9 53 18.7
2005-08-30 09:23:06 51°16.14 2°41.107 64.3 2.9 57 18.5
2005-08-30 09:24:06 51°16.167 2°41.169 64.2 2.9 54 18.2
2005-08-30 09:25:06 51°16.195 2°41.232 60.9 2.9 54 17.9
2005-08-30 09:26:06 51°16.225 2°41.292 56.7 2.8 50 17.7
2005-08-30 09:27:07 51°16.258 2°41.35 51.7 3 45 17.5
2005-08-30 09:28:06 51°16.291 2°41.406 54.9 2.9 49 17.4
2005-08-30 09:29:07 51°16.322 2°41.465 59.6 2.9 52 17.3
2005-08-30 09:30:06 51°16.35 2°41.525 61.6 2.9 52 17.1
2005-08-30 09:31:06 51°16.379 2°41.588 60.9 2.9 54 16.9
2005-08-30 09:32:06 51°16.41 2°41.646 49 2.9 43 16.7
2005-08-30 09:33:06 51°16.447 2°41.691 33.5 2.8 31 16.8
2005-08-30 09:34:06 51°16.49 2°41.724 20.8 2.9 22 17
2005-08-30 09:35:07 51°16.535 2°41.753 21.7 2.9 22 17.3
2005-08-30 09:36:07 51°16.58 2°41.784 25.1 2.9 24 17.5
2005-08-30 09:37:06 51°16.623 2°41.818 26.4 3 26 17.6
2005-08-30 09:38:06 51°16.667 2°41.853 26.8 3 28 17.8
2005-08-30 09:39:07 51°16.711 2°41.888 24.5 2.9 27 18
2005-08-30 09:40:07 51°16.755 2°41.918 17.1 2.9 22 18.2
2005-08-30 09:41:06 51°16.801 2°41.941 10 2.9 15 18.5
2005-08-30 09:42:06 51°16.847 2°41.959 7.2 2.8 12 18.8
2005-08-30 09:43:07 51°16.891 2°41.977 9.2 2.7 15 19.7
2005-08-30 09:44:06 51°16.933 2°41.995 9.7 2.7 16 20.2
2005-08-30 09:45:06 51°16.977 2°42.017 11.7 2.8 18 20.8
2005-08-30 09:46:06 51°17.021 2°42.038 12.1 2.8 18 21.4
2005-08-30 09:47:06 51°17.068 2°42.064 17.5 3 20 22
2005-08-30 09:48:07 51°17.117 2°42.096 21.6 3 25 22.3
2005-08-30 09:49:07 51°17.155 2°42.126 25.3 2.4 28 22.6
2005-08-30 09:50:06 51°17.186 2°42.152 24.8 2.1 31 22.7
2005-08-30 09:51:06 51°17.213 2°42.175 20.4 1.8 30 22.8
2005-08-30 09:52:07 51°17.237 2°42.194 13.8 1.5 24 23.1
2005-08-30 09:53:06 51°17.257 2°42.209 6.6 1.3 25 23.2
2005-08-30 09:54:06 51°17.282 2°42.217 340.5 2.1 357 23.5
2005-08-30 09:55:07 51°17.31 2°42.182 280.9 2.1 298 24
2005-08-30 09:56:06 51°17.287 2°42.122 218 3.8 218 24.3
2005-08-30 09:57:07 51°17.244 2°42.053 232.6 3 234 24.2
2005-08-30 09:58:07 51°17.22 2°41.999 233.1 2.4 236 24.3
2005-08-30 09:59:06 51°17.192 2°41.951 225.6 2.5 227 24.4
2005-08-30 10:00:07 51°17.163 2°41.9 230 2.6 231 24.3
2005-08-30 10:01:06 51°17.139 2°41.844 236.7 2.5 239 24.3
2005-08-30 10:02:07 51°17.118 2°41.788 236 2.4 240 24.3
2005-08-30 10:03:07 51°17.097 2°41.735 234.6 2.3 237 24.3
2005-08-30 10:04:07 51°17.075 2°41.683 234.3 2.4 236 24.5
2005-08-30 10:05:07 51°17.054 2°41.63 235.1 2.4 233 24.5
2005-08-30 10:06:07 51°17.031 2°41.576 234.7 2.4 232 24.5
2005-08-30 10:07:06 51°17.009 2°41.523 234.4 2.4 237 24.5
2005-08-30 10:08:06 51°16.986 2°41.469 234.8 2.4 233 24.3
2005-08-30 10:09:06 51°16.964 2°41.414 234.7 2.5 235 24.2
2005-08-30 10:10:06 51°16.94 2°41.36 232.9 2.5 233 24.2
2005-08-30 10:11:07 51°16.915 2°41.306 233.7 2.5 237 24.4
2005-08-30 10:12:06 51°16.893 2°41.252 234.9 2.5 234 24.4
2005-08-30 10:13:07 51°16.87 2°41.197 235 2.4 237 24.5
2005-08-30 10:14:06 51°16.848 2°41.142 237.1 2.5 242 24.6
2005-08-30 10:15:07 51°16.829 2°41.082 240.9 2.5 246 24.7
2005-08-30 10:16:06 51°16.81 2°41.024 240.1 2.5 248 24.8
2005-08-30 10:17:07 51°16.79 2°40.968 235 2.4 239 24.6
2005-08-30 10:18:07 51°16.767 2°40.916 233.7 2.4 235 24.6
2005-08-30 10:19:06 51°16.745 2°40.864 233.7 2.4 236 24.4
2005-08-30 10:20:06 51°16.722 2°40.812 233.7 2.4 233 24.4
2005-08-30 10:21:06 51°16.7 2°40.759 234 2.4 236 24.2
2005-08-30 10:22:07 51°16.679 2°40.703 239 2.4 239 24.1
2005-08-30 10:23:07 51°16.66 2°40.646 240.6 2.5 243 24
2005-08-30 10:24:06 51°16.641 2°40.588 240 2.5 242 24
2005-08-30 10:25:07 51°16.622 2°40.53 239.5 2.5 241 23.9
2005-08-30 10:26:06 51°16.602 2°40.475 234.9 2.4 235 23.7
2005-08-30 10:27:06 51°16.579 2°40.421 233.5 2.5 235 23.5
2005-08-30 10:28:07 51°16.557 2°40.366 234.3 2.5 237 23.6
2005-08-30 10:29:06 51°16.534 2°40.311 234.2 2.5 240 23.4
2005-08-30 10:30:06 51°16.512 2°40.257 234.1 2.5 236 23.4
2005-08-30 10:31:07 51°16.491 2°40.201 237 2.4 241 23.1
2005-08-30 10:32:07 51°16.472 2°40.147 237.5 2.3 244 23.2
2005-08-30 10:33:06 51°16.455 2°40.092 241.8 2.4 245 22.9
2005-08-30 10:34:06 51°16.444 2°40.032 251 2.5 258 22.9
2005-08-30 10:35:07 51°16.439 2°39.962 261 2.6 267 22.5
2005-08-30 10:36:06 51°16.443 2°39.906 271.4 1.9 284 22.6
2005-08-30 10:37:06 51°16.454 2°39.862 282.3 1.6 292 22.2
2005-08-30 10:38:07 51°16.469 2°39.829 290.5 1.5 311 22.1
2005-08-30 10:39:06 51°16.485 2°39.805 296.8 1.3 322 21.7
2005-08-30 10:40:07 51°16.486 2°39.731 237.2 3.7 235 21.3
2005-08-30 10:41:06 51°16.387 2°39.754 154.2 8.6 146 21.8
2005-08-30 10:42:07 51°16.242 2°39.907 150.5 10.9 145 22.4
2005-08-30 10:43:06 51°16.096 2°40.085 150 11.2 144 22.1
2005-08-30 10:44:07 51°15.943 2°40.265 148.8 11.4 143 21.1
2005-08-30 10:45:07 51°15.853 2°40.378 149.8 5.1 139 20
2005-08-30 10:46:06 51°15.809 2°40.443 149.2 3 136 19.2
2005-08-30 10:47:06 51°15.786 2°40.492 142.7 2 121 18.7
2005-08-30 10:48:07 51°15.774 2°40.533 135.8 1.5 108 18.3
2005-08-30 10:49:07 51°15.769 2°40.568 131.2 1.2 103 18
2005-08-30 10:50:06 51°15.768 2°40.597 126.4 1.1 91 17.6
2005-08-30 10:51:06 51°15.768 2°40.624 122.6 1 79 17.3
2005-08-30 10:52:06 51°15.77 2°40.646 118.6 0.7 97 17.3
2005-08-30 10:53:07 51°15.773 2°40.667 114.5 0.8 72 17.1
2005-08-30 10:54:07 51°15.777 2°40.684 112.6 0.7 69 17.1
2005-08-30 10:55:06 51°15.78 2°40.699 111.4 0.5 78 17
2005-08-30 10:56:07 51°15.784 2°40.713 111.7 0.5 70 16.9
2005-08-30 10:57:07 51°15.788 2°40.726 112.7 0.5 64 16.8
2005-08-30 10:58:06 51°15.791 2°40.736 115.4 0.6 53 16.8
2005-08-30 10:59:06 51°15.794 2°40.745 119.7 0.4 65 16.7
2005-08-30 11:00:07 51°15.796 2°40.774 102.5 2 88 16.6
2005-08-30 11:01:07 51°15.835 2°40.844 29 4.2 26 16.4
2005-08-30 11:02:07 51°15.915 2°40.829 340.5 5.3 344 17.7
2005-08-30 11:03:07 51°15.975 2°40.782 320.5 3.5 326 18.7
2005-08-30 11:04:06 51°16.01 2°40.716 290 4.3 295 19.5
2005-08-30 11:05:07 51°16.032 2°40.608 279.5 3.5 285 20.2
2005-08-30 11:06:07 51°16.041 2°40.568 270.4 0.8 317 20.6
2005-08-30 11:07:07 51°16.047 2°40.552 271.9 0.6 291 20.6
2005-08-30 11:08:07 51°16.053 2°40.538 279.4 0.6 305 20.7
2005-08-30 11:09:06 51°16.06 2°40.527 286.5 0.6 318 20.9
2005-08-30 11:10:07 51°16.068 2°40.517 293.4 0.6 333 20.9
2005-08-30 11:11:07 51°16.077 2°40.511 299.3 0.6 336 21
2005-08-30 11:12:07 51°16.088 2°40.483 280.1 2.3 290 21.2
2005-08-30 11:13:07 51°16.018 2°40.402 196.6 6.9 201 20.9
2005-08-30 11:14:07 51°15.878 2°40.467 161.4 9.5 156 19.5
2005-08-30 11:15:07 51°15.731 2°40.559 163.4 9.6 155 17.3
2005-08-30 11:16:07 51°15.611 2°40.693 144.8 7.1 137 15.2
2005-08-30 11:17:07 51°15.559 2°40.781 141 3.8 131 14.1
2005-08-30 11:18:07 51°15.548 2°40.819 115.9 0.5 67 13.7
2005-08-30 11:19:07 51°15.553 2°40.826 113.9 0.3 57 14.3
2005-08-30 11:20:06 51°15.557 2°40.831 123 0.6 30 13.9
2005-08-30 11:21:07 51°15.56 2°40.835 133.9 0.3 29 13.7
2005-08-30 11:22:06 51°15.564 2°40.837 142.3 0.2 20 14.2
2005-08-30 11:23:07 51°15.567 2°40.839 147.5 0.2 27 14.3
2005-08-30 11:24:07 51°15.569 2°40.841 149.4 0.3 30 14.1
2005-08-30 11:25:06 51°15.573 2°40.843 148.9 0.2 1 13.9
2005-08-30 11:26:07 51°15.576 2°40.845 146.9 0.3 11 13.8
2005-08-30 11:27:07 51°15.579 2°40.846 145.2 0.1 22 14.2
2005-08-30 11:28:07 51°15.582 2°40.847 143.1 0.2 2 14.2
2005-08-30 11:29:07 51°15.579 2°40.856 151.6 1.5 140 14.1
2005-08-30 11:30:07 51°15.546 2°40.859 203.5 2.4 197 14.1
2005-08-30 11:31:07 51°15.511 2°40.823 221.7 2.2 220 13.7
2005-08-30 11:32:07 51°15.493 2°40.78 236.8 2 243 13.6
2005-08-30 11:33:06 51°15.476 2°40.739 224.3 1.7 233 13.9
2005-08-30 11:34:07 51°15.457 2°40.702 238.8 0.9 243 14.4
2005-08-30 11:35:07 51°15.46 2°40.69 260.5 0.4 337 13.5
2005-08-30 11:36:07 51°15.467 2°40.704 266.3 0.7 65 -999
2005-08-30 11:37:07 51°15.471 2°40.722 263.6 0.6 68 13.9
2005-08-30 11:38:06 51°15.476 2°40.735 259.3 0.5 77 13.5
2005-08-30 11:39:07 51°15.481 2°40.719 278 0.5 308 14
2005-08-30 11:40:06 51°15.485 2°40.719 284.5 0.4 71 13.9
2005-08-30 11:41:07 51°15.491 2°40.712 305.5 1 312 13.8
2005-08-30 11:42:07 51°15.492 2°40.72 307.6 0.7 112 13.7
2005-08-30 11:43:07 51°15.492 2°40.73 318.6 0.8 321 14.1
2005-08-30 11:44:06 51°15.491 2°40.734 317.5 0.1 112 14.2
2005-08-30 11:45:06 51°15.488 2°40.746 308.9 0.7 117 13.7
2005-08-30 11:46:07 51°15.485 2°40.763 299.8 0.6 82 13.1
2005-08-30 11:47:06 51°15.486 2°40.776 289.4 0.4 81 13.8
2005-08-30 11:48:06 51°15.488 2°40.784 283.8 0.3 52 13.5
2005-08-30 11:49:07 51°15.523 2°40.727 321.5 7.2 329 14.3
2005-08-30 11:50:07 51°15.671 2°40.791 37.1 11 34 14.5
2005-08-30 11:51:07 51°15.841 2°40.944 30.1 11.9 27 15.1
2005-08-30 11:52:07 51°16.02 2°41.096 32.8 13.1 28 16.1
2005-08-30 11:53:06 51°16.222 2°41.262 29.6 13.8 25 16.7
2005-08-30 11:54:06 51°16.449 2°41.275 1.9 13.8 -999 19.3
2005-08-30 11:55:07 51°16.664 2°41.404 30.8 13.8 26 21
2005-08-30 11:56:07 51°16.866 2°41.58 36.6 13.7 32 22.2
2005-08-30 11:57:07 51°17.058 2°41.779 37.8 13.8 34 22.8
2005-08-30 11:58:06 51°17.249 2°41.977 37.8 13.8 34 23.6
2005-08-30 11:59:06 51°17.442 2°42.179 37.6 13.9 33 24.3
2005-08-30 12:00:07 51°17.636 2°42.386 40.6 13.8 35 23.9
2005-08-30 12:01:07 51°17.826 2°42.593 37.6 13.9 33 24.1
2005-08-30 12:02:07 51°18.012 2°42.806 42.2 13.7 38 24.4
2005-08-30 12:03:07 51°18.18 2°42.994 37.9 10.6 35 24.5
2005-08-30 12:04:07 51°18.277 2°43.086 34.4 5.7 30 24.5
2005-08-30 12:05:06 51°18.337 2°43.16 47.5 4.1 43 24.2
2005-08-30 12:06:07 51°18.386 2°43.215 31.4 3.5 28 24.1
2005-08-30 12:07:07 51°18.431 2°43.259 42.8 2.8 35 24.2
2005-08-30 12:08:06 51°18.46 2°43.297 48.5 2 42 23.8
2005-08-30 12:09:06 51°18.481 2°43.321 33.8 0.4 41 23.3
2005-08-30 12:10:07 51°18.493 2°43.327 7 1 14 24.4
2005-08-30 12:11:07 51°18.507 2°43.325 339.8 1.5 340 24
2005-08-30 12:12:07 51°18.526 2°43.301 302.2 1.3 314 24.1
2005-08-30 12:13:07 51°18.538 2°43.279 302.6 1 315 24.1
2005-08-30 12:14:06 51°18.549 2°43.259 303.8 1.2 313 24.2
2005-08-30 12:15:06 51°18.543 2°43.193 233.9 3.5 229 24.1
2005-08-30 12:16:07 51°18.542 2°43.182 196.5 1.6 10 -999
2005-08-30 12:17:06 51°18.524 2°43.199 142.2 2.4 133 24.2
2005-08-30 12:18:07 51°18.51 2°43.25 122 2 113 24.2
2005-08-30 12:19:07 51°18.491 2°43.29 146.3 1.7 134 24
2005-08-30 12:20:06 51°18.475 2°43.315 146 1 129 21.8
2005-08-30 12:21:07 51°18.463 2°43.357 111 2 110 23.7
2005-08-30 12:22:07 51°18.459 2°43.397 104.1 1.3 95 23.6
2005-08-30 12:23:07 51°18.457 2°43.426 103.9 0.9 99 23.5
2005-08-30 12:24:07 51°18.456 2°43.437 109.7 0.2 113 23.6
2005-08-30 12:25:07 51°18.454 2°43.442 118.5 0.2 112 23.5
2005-08-30 12:26:06 51°18.452 2°43.444 129.4 0.2 165 23.4
2005-08-30 12:27:07 51°18.449 2°43.444 137.3 0.2 187 23.4
2005-08-30 12:28:07 51°18.446 2°43.442 141.7 0.2 218 23.4
2005-08-30 12:29:06 51°18.444 2°43.441 144 0.2 230 23.4
2005-08-30 12:30:07 51°18.443 2°43.438 144 0.2 225 23.4
2005-08-30 12:31:07 51°18.441 2°43.434 144.3 0.3 230 23.4
2005-08-30 12:32:07 51°18.439 2°43.43 143.6 0.2 248 23.5
2005-08-30 12:33:07 51°18.437 2°43.424 143.4 0.2 224 23.5
2005-08-30 12:34:07 51°18.435 2°43.418 142.4 0.3 231 23.4
2005-08-30 12:35:07 51°18.426 2°43.441 110.9 1.9 111 23.2
2005-08-30 12:36:07 51°18.438 2°43.506 54.5 3.5 48 23.2
2005-08-30 12:37:07 51°18.491 2°43.535 359.4 3.2 1 23.3
2005-08-30 12:38:07 51°18.535 2°43.499 319.5 2.6 322 23.3
2005-08-30 12:39:07 51°18.558 2°43.459 312.8 1.9 311 24.1
2005-08-30 12:40:07 51°18.576 2°43.427 314.3 1.5 311 23.7
2005-08-30 12:41:07 51°18.59 2°43.401 317 1.2 313 23.7
2005-08-30 12:42:07 51°18.602 2°43.381 319.1 0.9 322 23.6
2005-08-30 12:43:07 51°18.612 2°43.365 324.1 0.8 313 23.6
2005-08-30 12:44:07 51°18.621 2°43.353 328.6 0.7 318 23.5
2005-08-30 12:45:07 51°18.628 2°43.342 331.2 0.5 316 23.6
2005-08-30 12:46:07 51°18.634 2°43.332 333.1 0.4 312 23.6
2005-08-30 12:47:07 51°18.637 2°43.322 336.2 0.5 301 23.6
2005-08-30 12:48:07 51°18.645 2°43.308 330.7 0.8 314 23.5
2005-08-30 12:49:06 51°18.663 2°43.271 296.7 2.1 295 23.7
2005-08-30 12:50:07 51°18.664 2°43.215 251.1 2.1 249 23.7
2005-08-30 12:51:07 51°18.64 2°43.178 204.4 2.1 207 23.7
2005-08-30 12:52:07 51°18.614 2°43.168 188 1.4 188 23.7
2005-08-30 12:53:07 51°18.595 2°43.167 177.9 1 178 23.7
2005-08-30 12:54:07 51°18.581 2°43.168 169.6 0.8 172 23.7
2005-08-30 12:55:07 51°18.57 2°43.17 161.2 0.6 167 23.7
2005-08-30 12:56:06 51°18.561 2°43.173 153.8 0.5 166 23.8
2005-08-30 12:57:07 51°18.554 2°43.176 147.8 0.4 169 23.6
2005-08-30 12:58:06 51°18.548 2°43.177 141.9 0.3 173 23.7
2005-08-30 12:59:07 51°18.544 2°43.176 136.3 0.2 182 23.7
2005-08-30 13:00:07 51°18.54 2°43.175 132.3 0.3 196 23.7
2005-08-30 13:01:06 51°18.536 2°43.17 130.6 0.2 212 23.8
2005-08-30 13:02:07 51°18.532 2°43.166 130.6 0.4 215 23.7
2005-08-30 13:03:07 51°18.528 2°43.16 131.9 0.4 221 23.7
2005-08-30 13:04:06 51°18.524 2°43.154 134.1 0.4 222 23.8
2005-08-30 13:05:07 51°18.52 2°43.146 135.7 0.3 222 23.7
2005-08-30 13:06:07 51°18.515 2°43.138 136.4 0.4 231 23.7
2005-08-30 13:07:07 51°18.51 2°43.129 138.4 0.5 230 23.8
2005-08-30 13:08:07 51°18.506 2°43.119 140 0.5 231 23.7
2005-08-30 13:09:07 51°18.501 2°43.109 141.8 0.6 232 23.7
2005-08-30 13:10:07 51°18.497 2°43.098 142.9 0.6 237 23.7
2005-08-30 13:11:06 51°18.491 2°43.087 143.9 0.5 236 23.7
2005-08-30 13:12:07 51°18.486 2°43.076 144.1 0.5 240 23.7
2005-08-30 13:13:07 51°18.482 2°43.064 144.8 0.6 235 23.7
2005-08-30 13:14:07 51°18.478 2°43.053 144.8 0.6 236 23.9
2005-08-30 13:15:07 51°18.473 2°43.041 144.9 0.5 232 23.8
2005-08-30 13:16:07 51°18.468 2°43.028 146.4 0.6 231 23.8
2005-08-30 13:17:07 51°18.463 2°43.017 145.9 0.5 227 23.9
2005-08-30 13:18:07 51°18.441 2°43.032 141.5 3.9 143 24
2005-08-30 13:19:06 51°18.336 2°43.165 145.6 10.2 143 23.5
2005-08-30 13:20:07 51°18.172 2°43.355 145 12.9 143 21.1
2005-08-30 13:21:07 51°18.002 2°43.558 146.1 12.8 145 11.2
2005-08-30 13:22:07 51°17.832 2°43.763 145.1 13 143 11.4
2005-08-30 13:23:07 51°17.66 2°43.968 145.7 13 143 15.9
2005-08-30 13:24:07 51°17.488 2°44.178 144.7 13 143 17
2005-08-30 13:25:07 51°17.317 2°44.389 144.9 12.9 142 16
2005-08-30 13:26:07 51°17.15 2°44.603 146.2 12.8 146 16.1
2005-08-30 13:27:07 51°16.976 2°44.807 144.9 13.1 144 13.5
2005-08-30 13:28:07 51°16.803 2°45.008 145.6 12.9 146 11.7
2005-08-30 13:29:07 51°16.629 2°45.209 145.8 13 145 10.5
2005-08-30 13:30:07 51°16.457 2°45.415 142.2 12.9 140 10.7
2005-08-30 13:31:07 51°16.317 2°45.674 129.8 12.7 128 10.4
2005-08-30 13:32:07 51°16.188 2°45.941 127.1 13 125 10.9
2005-08-30 13:33:07 51°16.104 2°46.255 109.5 12.9 107 11.9
2005-08-30 13:34:07 51°16.036 2°46.58 110.9 12.9 109 14.2
2005-08-30 13:35:07 51°15.965 2°46.904 110.6 12.9 110 16.2
2005-08-30 13:36:07 51°15.891 2°47.226 111.5 13 111 16.5
2005-08-30 13:37:07 51°15.816 2°47.541 112 12.8 111 15.4
2005-08-30 13:38:07 51°15.741 2°47.856 111.7 12.7 111 13.6
2005-08-30 13:39:07 51°15.665 2°48.173 111 12.7 110 11.5
2005-08-30 13:40:07 51°15.589 2°48.484 111.7 12.5 111 10.4
2005-08-30 13:41:07 51°15.512 2°48.8 112.2 12.8 112 10.6
2005-08-30 13:42:07 51°15.432 2°49.116 112.7 12.7 113 12.8
2005-08-30 13:43:07 51°15.351 2°49.431 112.2 12.7 113 12.9
2005-08-30 13:44:07 51°15.272 2°49.741 111.4 12.7 112 12.8
2005-08-30 13:45:07 51°15.191 2°50.053 112 12.6 112 12.7
2005-08-30 13:46:07 51°15.11 2°50.363 112.3 12.7 113 12.4
2005-08-30 13:47:07 51°15.035 2°50.675 111.1 12.6 112 12.2
2005-08-30 13:48:07 51°14.963 2°50.988 108.1 12.6 107 11.7
2005-08-30 13:49:07 51°14.908 2°51.306 104.9 12.6 104 11.2
2005-08-30 13:50:07 51°14.855 2°51.629 104.2 12.4 104 10.7
2005-08-30 13:51:07 51°14.801 2°51.948 105.3 12.5 106 10
2005-08-30 13:52:07 51°14.756 2°52.268 103.2 12.6 103 9.5
2005-08-30 13:53:07 51°14.697 2°52.584 105.9 12.4 107 9.3
2005-08-30 13:54:07 51°14.645 2°52.907 102.7 12.4 103 8.8
2005-08-30 13:55:07 51°14.595 2°53.225 104.4 12.5 105 8.3
2005-08-30 13:56:07 51°14.545 2°53.537 102.7 10.9 103 9.4
2005-08-30 13:57:07 51°14.506 2°53.731 106.6 6.1 109 9.8
2005-08-30 13:58:07 51°14.494 2°53.836 88.5 3.1 94 9.8
2005-08-30 13:59:07 51°14.494 2°53.888 80.3 1.5 90 9.8
2005-08-30 14:00:07 51°14.492 2°53.916 78.6 0.7 96 9.7
2005-08-30 14:01:07 51°14.487 2°53.928 80.5 0.4 133 9.8
2005-08-30 14:02:07 51°14.481 2°53.931 81.6 0.4 177 9.7
2005-08-30 14:03:07 51°14.473 2°53.926 84.2 0.6 198 9.7
2005-08-30 14:04:07 51°14.463 2°53.918 89.9 0.6 221 9.7
2005-08-30 14:05:08 51°14.451 2°53.905 97.4 0.7 226 9.7
2005-08-30 14:06:07 51°14.439 2°53.892 105.1 0.8 219 9.7
2005-08-30 14:07:07 51°14.426 2°53.877 112.4 0.8 221 9.7
2005-08-30 14:08:07 51°14.413 2°53.862 116.8 0.9 219 9.6
2005-08-30 14:09:07 51°14.4 2°53.845 120.8 1.1 219 9.6
2005-08-30 14:10:07 51°14.384 2°53.845 111.6 1.7 138 9.6
2005-08-30 14:11:07 51°14.374 2°53.948 92.3 5.3 93 9.5
2005-08-30 14:12:07 51°14.367 2°54.099 92.3 6.4 93 9.3
2005-08-30 14:13:07 51°14.367 2°54.346 89.1 10.3 89 9.2
2005-08-30 14:14:07 51°14.375 2°54.626 87.2 10.7 86 9.4
2005-08-30 14:15:07 51°14.385 2°54.894 90 9.6 87 9.4
2005-08-30 14:16:07 51°14.335 2°55.132 121.2 9.9 116 9.8
2005-08-30 14:17:09 51°14.207 2°55.342 144 10.6 142 -999
2005-08-30 14:18:08 51°14.077 2°55.45 158.5 8.1 158 -999
2005-08-30 14:19:08 51°13.955 2°55.541 157.5 8.5 155 -999
2005-08-30 14:20:08 51°13.819 2°55.643 155.6 9 154 -999
2005-08-30 14:21:08 51°13.718 2°55.771 135.5 6.7 133 -999
2005-08-30 14:22:08 51°13.662 2°55.891 125.8 5 124 -999
2005-08-30 14:23:08 51°13.624 2°55.993 116.4 3.8 114 -999
2005-08-30 14:24:09 51°13.608 2°56.062 115.2 2 111 -999
2005-08-30 14:25:08 51°13.598 2°56.094 121.9 0.2 114 -999
2005-08-30 14:26:08 51°13.597 2°56.094 124.6 -999 346 -999